Time;durP1;ratioP1;P1;durP2;ratioP2;P2;SDS_P1;SDS_P2;PMS_P1;PMS_P2;Temp;Humidity;BMP_temperature;BMP_pressure;BME280_temperature;BME280_humidity;BME280_pressure;Samples;Min_cycle;Max_cycle;Signal;HPM_P1;HPM_P2
2022/07/23 00:00:38;;;;;;;10.60;7.15;;;;;;;;;;5097657;28;20205;-67
2022/07/23 00:03:06;;;;;;;9.93;7.50;;;;;;;;;;5098597;28;20292;-67
2022/07/23 00:05:34;;;;;;;8.90;7.70;;;;;;;;;;5094991;28;20201;-67
2022/07/23 00:08:04;;;;;;;7.50;6.82;;;;;;;;;;5098589;28;20650;-67
2022/07/23 00:10:37;;;;;;;9.48;7.03;;;;;;;;;;5098646;28;20228;-67
2022/07/23 00:13:05;;;;;;;7.65;6.60;;;;;;;;;;5098466;28;20586;-67
2022/07/23 00:15:35;;;;;;;7.40;6.63;;;;;;;;;;5097512;28;20200;-67
2022/07/23 00:18:03;;;;;;;10.00;7.75;;;;;;;;;;5098676;28;20251;-72
2022/07/23 00:20:31;;;;;;;9.60;7.22;;;;;;;;;;5095681;28;20195;-72
2022/07/23 00:22:59;;;;;;;7.75;6.90;;;;;;;;;;5095050;28;20237;-69
2022/07/23 00:25:27;;;;;;;7.57;6.78;;;;;;;;;;5094015;28;20207;-69
2022/07/23 00:27:57;;;;;;;7.18;6.47;;;;;;;;;;5096045;28;20205;-67
2022/07/23 00:30:26;;;;;;;9.57;7.00;;;;;;;;;;5101947;28;20657;-71
2022/07/23 00:32:56;;;;;;;7.40;6.80;;;;;;;;;;5095039;28;20204;-70
2022/07/23 00:35:26;;;;;;;7.30;6.60;;;;;;;;;;5098221;28;20565;-68
2022/07/23 00:37:54;;;;;;;7.00;6.32;;;;;;;;;;5098146;28;20258;-68
2022/07/23 00:40:22;;;;;;;7.15;6.47;;;;;;;;;;5097677;28;20206;-68
2022/07/23 00:42:50;;;;;;;6.82;6.05;;;;;;;;;;5097883;28;20202;-70
2022/07/23 00:45:18;;;;;;;6.80;6.10;;;;;;;;;;5098205;28;20242;-70
2022/07/23 00:47:46;;;;;;;10.60;6.70;;;;;;;;;;5098234;28;20247;-71
2022/07/23 00:50:16;;;;;;;7.13;5.72;;;;;;;;;;5097598;28;20281;-69
2022/07/23 00:52:44;;;;;;;8.55;6.32;;;;;;;;;;5098218;28;20199;-70
2022/07/23 00:55:12;;;;;;;8.70;6.35;;;;;;;;;;5097933;28;20236;-66
2022/07/23 00:57:41;;;;;;;6.37;5.73;;;;;;;;;;5097900;28;20331;-66
2022/07/23 01:00:11;;;;;;;6.55;5.95;;;;;;;;;;5097756;28;20253;-66
2022/07/23 01:02:39;;;;;;;9.18;6.30;;;;;;;;;;5097815;28;20206;-66
2022/07/23 01:05:07;;;;;;;6.30;5.60;;;;;;;;;;5097792;28;20228;-65
2022/07/23 01:07:37;;;;;;;7.07;5.57;;;;;;;;;;5097805;28;20207;-66
2022/07/23 01:10:30;;;;;;;6.57;5.50;;;;;;;;;;5097410;28;20584;-64
2022/07/23 01:12:54;;;;;;;9.82;5.80;;;;;;;;;;5097568;28;20204;-65
2022/07/23 01:15:23;;;;;;;5.68;5.25;;;;;;;;;;5097952;28;20246;-65
2022/07/23 01:17:51;;;;;;;7.10;6.40;;;;;;;;;;5097621;28;20238;-64
2022/07/23 01:20:19;;;;;;;30.60;26.47;;;;;;;;;;5097461;28;20716;-65
2022/07/23 01:22:49;;;;;;;12.50;10.60;;;;;;;;;;5097554;28;20240;-65
2022/07/23 01:25:17;;;;;;;31.73;26.10;;;;;;;;;;5097717;28;20206;-64
2022/07/23 01:27:45;;;;;;;24.27;18.97;;;;;;;;;;5097558;28;20236;-64
2022/07/23 01:30:13;;;;;;;40.57;26.63;;;;;;;;;;5097756;28;20312;-65
2022/07/23 01:32:42;;;;;;;23.37;17.50;;;;;;;;;;5116275;28;20217;-65
2022/07/23 01:35:10;;;;;;;61.10;45.30;;;;;;;;;;5117596;28;20218;-65
2022/07/23 01:37:38;;;;;;;16.70;11.53;;;;;;;;;;5118018;28;20241;-65
2022/07/23 01:40:08;;;;;;;53.67;37.70;;;;;;;;;;5117792;28;20701;-64
2022/07/23 01:42:36;;;;;;;34.53;27.87;;;;;;;;;;5098938;28;20220;-64
2022/07/23 01:45:06;;;;;;;42.50;34.10;;;;;;;;;;5097639;28;20226;-64
2022/07/23 01:47:34;;;;;;;58.43;46.40;;;;;;;;;;5097482;28;20676;-64
2022/07/23 01:50:02;;;;;;;40.57;29.80;;;;;;;;;;5096932;28;20638;-62
2022/07/23 01:52:30;;;;;;;47.93;40.30;;;;;;;;;;5099986;28;20246;-62
2022/07/23 01:54:58;;;;;;;28.83;22.53;;;;;;;;;;5101004;28;20233;-63
2022/07/23 01:57:27;;;;;;;25.77;22.07;;;;;;;;;;5100994;28;20550;-63
2022/07/23 01:59:55;;;;;;;36.15;28.67;;;;;;;;;;5101409;28;20207;-64
2022/07/23 02:02:23;;;;;;;15.82;13.45;;;;;;;;;;5120598;28;20195;-62
2022/07/23 02:04:51;;;;;;;36.40;28.03;;;;;;;;;;5121208;28;20228;-63
2022/07/23 02:07:19;;;;;;;9.45;8.52;;;;;;;;;;5121611;28;20205;-64
2022/07/23 02:09:47;;;;;;;14.80;12.07;;;;;;;;;;5121465;28;20209;-64
2022/07/23 02:12:16;;;;;;;24.20;20.23;;;;;;;;;;5119159;28;20606;-63
2022/07/23 02:14:45;;;;;;;14.27;8.97;;;;;;;;;;5100745;28;20317;-64
2022/07/23 02:17:13;;;;;;;11.37;9.43;;;;;;;;;;5100778;28;20211;-63
2022/07/23 02:19:41;;;;;;;14.57;11.97;;;;;;;;;;5100372;28;20269;-63
2022/07/23 02:22:09;;;;;;;20.03;13.70;;;;;;;;;;5100721;28;20199;-64
2022/07/23 02:24:37;;;;;;;14.60;11.63;;;;;;;;;;5100765;28;20269;-63
2022/07/23 02:27:05;;;;;;;12.20;9.80;;;;;;;;;;5100629;28;20233;-63
2022/07/23 02:29:33;;;;;;;13.83;11.37;;;;;;;;;;5100645;28;20201;-63
2022/07/23 02:32:03;;;;;;;12.30;10.60;;;;;;;;;;5100838;28;20263;-64
2022/07/23 02:34:31;;;;;;;11.20;9.40;;;;;;;;;;5100182;28;20225;-64
2022/07/23 02:36:59;;;;;;;10.63;9.73;;;;;;;;;;5100448;28;20240;-63
2022/07/23 02:39:27;;;;;;;11.90;10.73;;;;;;;;;;5100692;28;20214;-64
2022/07/23 02:41:55;;;;;;;7.93;6.27;;;;;;;;;;5100228;28;20729;-63
2022/07/23 02:44:24;;;;;;;14.27;9.93;;;;;;;;;;5100122;28;20670;-63
2022/07/23 02:46:52;;;;;;;12.43;11.13;;;;;;;;;;5100393;28;20213;-64
2022/07/23 02:49:21;;;;;;;7.93;7.13;;;;;;;;;;5099934;28;20693;-64
2022/07/23 02:51:49;;;;;;;9.37;6.90;;;;;;;;;;5100311;28;20225;-63
2022/07/23 02:54:18;;;;;;;11.50;8.57;;;;;;;;;;5099925;28;20275;-63
2022/07/23 02:56:47;;;;;;;11.30;8.50;;;;;;;;;;5100001;28;20236;-63
2022/07/23 02:59:15;;;;;;;11.30;9.63;;;;;;;;;;5096455;28;20233;-63
2022/07/23 03:01:43;;;;;;;10.60;9.50;;;;;;;;;;5099481;28;20192;-63
2022/07/23 03:04:10;;;;;;;10.43;9.20;;;;;;;;;;5099364;28;20308;-63
2022/07/23 03:06:40;;;;;;;11.77;9.70;;;;;;;;;;5099600;28;20685;-64
2022/07/23 03:09:08;;;;;;;10.70;8.77;;;;;;;;;;5099573;28;20549;-63
2022/07/23 03:11:36;;;;;;;10.17;7.53;;;;;;;;;;5099367;28;20262;-64
2022/07/23 03:14:05;;;;;;;8.60;7.10;;;;;;;;;;5099350;28;20259;-63
2022/07/23 03:16:33;;;;;;;7.90;7.20;;;;;;;;;;5099495;28;20231;-63
2022/07/23 03:19:01;;;;;;;9.33;8.43;;;;;;;;;;5099459;28;20232;-63
2022/07/23 03:21:33;;;;;;;8.37;7.43;;;;;;;;;;5098825;28;20201;-64
2022/07/23 03:24:03;;;;;;;10.07;7.30;;;;;;;;;;5099045;28;20332;-64
2022/07/23 03:26:31;;;;;;;12.07;8.33;;;;;;;;;;5099321;28;20250;-64
2022/07/23 03:29:01;;;;;;;8.98;8.07;;;;;;;;;;5099336;28;20726;-64
2022/07/23 03:31:30;;;;;;;8.03;7.23;;;;;;;;;;5099498;28;20260;-64
2022/07/23 03:33:58;;;;;;;9.93;6.60;;;;;;;;;;5098906;28;20237;-64
2022/07/23 03:36:26;;;;;;;9.23;7.67;;;;;;;;;;5099302;28;20240;-64
2022/07/23 03:38:54;;;;;;;12.30;7.90;;;;;;;;;;5099400;28;20239;-64
2022/07/23 03:41:24;;;;;;;9.80;7.53;;;;;;;;;;5099415;28;20202;-63
2022/07/23 03:43:52;;;;;;;8.77;7.87;;;;;;;;;;5098968;28;20658;-63
2022/07/23 03:46:20;;;;;;;8.83;7.63;;;;;;;;;;5099031;28;20240;-63
2022/07/23 03:48:48;;;;;;;8.00;7.17;;;;;;;;;;5098738;28;20257;-63
2022/07/23 03:51:19;;;;;;;8.70;7.80;;;;;;;;;;5101123;28;20210;-63
2022/07/23 03:53:48;;;;;;;12.80;7.53;;;;;;;;;;5118944;28;20225;-64
2022/07/23 03:56:16;;;;;;;8.07;6.67;;;;;;;;;;5097349;28;20236;-63
2022/07/23 03:58:46;;;;;;;8.57;6.87;;;;;;;;;;5096724;28;20241;-64
2022/07/23 04:01:14;;;;;;;9.23;6.80;;;;;;;;;;5097237;28;20670;-63
2022/07/23 04:03:42;;;;;;;7.03;6.07;;;;;;;;;;5098177;28;20279;-63
2022/07/23 04:06:10;;;;;;;9.03;7.30;;;;;;;;;;5098792;28;20237;-64
2022/07/23 04:08:38;;;;;;;9.83;6.80;;;;;;;;;;5098509;28;20695;-64
2022/07/23 04:11:06;;;;;;;8.10;6.23;;;;;;;;;;5098769;28;20204;-64
2022/07/23 04:13:34;;;;;;;7.70;6.97;;;;;;;;;;5098196;28;20261;-64
2022/07/23 04:16:04;;;;;;;8.20;7.10;;;;;;;;;;5098517;28;20218;-64
2022/07/23 04:18:32;;;;;;;8.10;7.30;;;;;;;;;;5098692;28;20207;-63
2022/07/23 04:21:00;;;;;;;7.00;6.10;;;;;;;;;;5098699;28;20217;-62
2022/07/23 04:23:28;;;;;;;8.17;6.93;;;;;;;;;;5098125;28;20267;-61
2022/07/23 04:25:56;;;;;;;10.97;6.23;;;;;;;;;;5098388;28;20209;-61
2022/07/23 04:28:24;;;;;;;7.43;6.50;;;;;;;;;;5098578;28;20306;-61
2022/07/23 04:30:52;;;;;;;10.07;7.23;;;;;;;;;;5098279;28;20224;-61
2022/07/23 04:33:22;;;;;;;7.70;6.20;;;;;;;;;;5098232;28;20299;-61
2022/07/23 04:35:50;;;;;;;7.07;6.37;;;;;;;;;;5097943;28;20213;-61
2022/07/23 04:38:18;;;;;;;8.13;6.60;;;;;;;;;;5098356;28;20208;-62
2022/07/23 04:40:46;;;;;;;7.60;6.40;;;;;;;;;;5098296;28;20216;-62
2022/07/23 04:43:13;;;;;;;9.20;6.67;;;;;;;;;;5091201;28;20661;-64
2022/07/23 04:45:41;;;;;;;8.70;7.07;;;;;;;;;;5080034;28;20743;-64
2022/07/23 04:48:10;;;;;;;10.90;6.73;;;;;;;;;;5083308;28;20278;-71
2022/07/23 04:50:42;;;;;;;8.10;6.60;;;;;;;;;;5097660;28;20262;-68
2022/07/23 04:53:10;;;;;;;8.43;6.73;;;;;;;;;;5110595;28;20262;-68
2022/07/23 04:55:38;;;;;;;7.80;6.97;;;;;;;;;;5106199;28;20265;-70
2022/07/23 04:58:07;;;;;;;9.30;6.63;;;;;;;;;;5086073;28;20249;-60
2022/07/23 05:00:35;;;;;;;9.93;6.67;;;;;;;;;;5091653;28;20654;-63
2022/07/23 05:03:03;;;;;;;7.77;6.60;;;;;;;;;;5099899;28;20222;-62
2022/07/23 05:05:31;;;;;;;8.13;6.03;;;;;;;;;;5096523;28;20205;-63
2022/07/23 05:08:01;;;;;;;9.47;6.27;;;;;;;;;;5114241;28;20198;-64
2022/07/23 05:10:29;;;;;;;7.13;5.97;;;;;;;;;;5097899;28;20212;-64
2022/07/23 05:12:57;;;;;;;6.43;5.70;;;;;;;;;;5097521;28;20573;-63
2022/07/23 05:15:25;;;;;;;6.40;5.80;;;;;;;;;;5087254;28;20245;-64
2022/07/23 05:17:53;;;;;;;9.13;6.40;;;;;;;;;;5097657;28;20563;-64
2022/07/23 05:20:21;;;;;;;8.40;6.30;;;;;;;;;;5117831;28;20257;-63
2022/07/23 05:22:49;;;;;;;7.23;5.70;;;;;;;;;;5116363;28;20237;-63
2022/07/23 05:25:18;;;;;;;6.77;6.13;;;;;;;;;;5097847;28;20252;-64
2022/07/23 05:27:46;;;;;;;5.73;5.13;;;;;;;;;;5101908;28;20212;-64
2022/07/23 05:30:14;;;;;;;8.60;5.83;;;;;;;;;;5099070;28;20251;-63
2022/07/23 05:32:42;;;;;;;9.60;6.27;;;;;;;;;;5097286;28;20287;-63
2022/07/23 05:35:11;;;;;;;6.63;5.73;;;;;;;;;;5099803;28;20204;-64
2022/07/23 05:37:39;;;;;;;9.53;6.40;;;;;;;;;;5099864;28;20233;-63
2022/07/23 05:40:08;;;;;;;8.50;5.53;;;;;;;;;;5100001;28;20214;-64
2022/07/23 05:42:38;;;;;;;9.87;6.50;;;;;;;;;;5099920;28;20250;-63
2022/07/23 05:45:07;;;;;;;7.87;5.50;;;;;;;;;;5100450;28;20226;-64
2022/07/23 05:47:40;;;;;;;8.47;5.53;;;;;;;;;;5097745;28;20213;-63
2022/07/23 05:50:08;;;;;;;6.47;5.70;;;;;;;;;;5087218;28;20205;-64
2022/07/23 05:52:36;;;;;;;8.60;5.83;;;;;;;;;;5101304;28;20260;-63
2022/07/23 05:55:05;;;;;;;7.07;5.87;;;;;;;;;;5100838;28;20225;-65
2022/07/23 05:57:33;;;;;;;6.23;5.63;;;;;;;;;;5110629;28;20252;-64
2022/07/23 06:00:03;;;;;;;7.00;5.30;;;;;;;;;;5121686;28;20203;-64
2022/07/23 06:02:31;;;;;;;9.03;5.87;;;;;;;;;;5121432;28;20593;-64
2022/07/23 06:04:59;;;;;;;6.27;5.73;;;;;;;;;;5109951;28;20664;-63
2022/07/23 06:07:27;;;;;;;8.67;5.70;;;;;;;;;;5100967;28;20664;-63
2022/07/23 06:09:55;;;;;;;6.53;5.93;;;;;;;;;;5101258;28;20233;-64
2022/07/23 06:12:24;;;;;;;6.93;5.53;;;;;;;;;;5100721;28;20242;-64
2022/07/23 06:14:52;;;;;;;6.77;5.63;;;;;;;;;;5100956;28;20225;-64
2022/07/23 06:17:21;;;;;;;5.80;5.27;;;;;;;;;;5101067;28;20207;-64
2022/07/23 06:19:49;;;;;;;5.80;5.30;;;;;;;;;;5100720;28;20240;-64
2022/07/23 06:22:19;;;;;;;7.30;6.47;;;;;;;;;;5090721;28;20216;-64
2022/07/23 06:24:47;;;;;;;8.37;5.70;;;;;;;;;;5100340;28;20587;-64
2022/07/23 06:27:15;;;;;;;6.47;5.83;;;;;;;;;;5100436;28;20236;-64
2022/07/23 06:29:43;;;;;;;5.73;5.23;;;;;;;;;;5100932;28;20255;-64
2022/07/23 06:32:11;;;;;;;7.10;5.70;;;;;;;;;;5100670;28;20215;-64
2022/07/23 06:34:40;;;;;;;9.50;5.87;;;;;;;;;;5100082;28;20716;-63
2022/07/23 06:37:15;;;;;;;6.97;5.57;;;;;;;;;;5099596;28;20208;-64
2022/07/23 06:39:44;;;;;;;6.13;5.30;;;;;;;;;;5092492;28;20198;-63
2022/07/23 06:42:12;;;;;;;5.93;5.33;;;;;;;;;;5096888;28;20252;-63
2022/07/23 06:44:40;;;;;;;5.90;5.33;;;;;;;;;;5100210;28;20225;-63
2022/07/23 06:47:08;;;;;;;5.47;4.93;;;;;;;;;;5100460;28;20207;-63
2022/07/23 06:49:36;;;;;;;6.90;5.53;;;;;;;;;;5100005;28;20207;-63
2022/07/23 06:52:06;;;;;;;7.67;5.43;;;;;;;;;;5100047;28;20638;-63
2022/07/23 06:54:34;;;;;;;5.50;4.67;;;;;;;;;;5099804;28;20231;-63
2022/07/23 06:57:02;;;;;;;9.23;5.70;;;;;;;;;;5089400;28;20685;-64
2022/07/23 06:59:30;;;;;;;5.67;4.90;;;;;;;;;;5099894;28;20216;-63
2022/07/23 07:01:58;;;;;;;5.17;4.67;;;;;;;;;;5100018;28;20213;-64
2022/07/23 07:04:26;;;;;;;5.37;4.87;;;;;;;;;;5099642;28;20248;-63
2022/07/23 07:06:54;;;;;;;6.80;4.93;;;;;;;;;;5097665;28;20208;-63
2022/07/23 07:09:24;;;;;;;5.87;5.37;;;;;;;;;;5084090;28;20270;-64
2022/07/23 07:11:52;;;;;;;7.97;5.47;;;;;;;;;;5093943;28;20676;-64
2022/07/23 07:14:20;;;;;;;7.97;5.67;;;;;;;;;;5089597;28;20256;-62
2022/07/23 07:16:48;;;;;;;8.90;5.20;;;;;;;;;;5098135;28;20237;-63
2022/07/23 07:19:16;;;;;;;6.47;5.40;;;;;;;;;;5098726;28;20247;-63
2022/07/23 07:21:44;;;;;;;6.83;5.67;;;;;;;;;;5098208;28;20211;-62
2022/07/23 07:24:12;;;;;;;5.60;5.10;;;;;;;;;;5099258;28;20596;-63
2022/07/23 07:26:41;;;;;;;6.17;5.00;;;;;;;;;;5099343;28;20234;-62
2022/07/23 07:29:09;;;;;;;8.77;5.45;;;;;;;;;;5099682;28;20237;-63
2022/07/23 07:31:37;;;;;;;8.40;5.38;;;;;;;;;;5096452;28;20579;-64
2022/07/23 07:34:05;;;;;;;5.35;4.88;;;;;;;;;;5099072;28;20264;-63
2022/07/23 07:36:36;;;;;;;10.10;5.20;;;;;;;;;;5096783;28;20239;-62
2022/07/23 07:39:05;;;;;;;12.20;5.55;;;;;;;;;;5096202;28;20257;-62
2022/07/23 07:41:33;;;;;;;7.22;5.20;;;;;;;;;;5106782;28;20199;-61
2022/07/23 07:44:02;;;;;;;6.20;4.82;;;;;;;;;;5117645;28;20595;-62
2022/07/23 07:46:31;;;;;;;6.40;4.45;;;;;;;;;;5117497;28;20257;-61
2022/07/23 07:48:59;;;;;;;10.20;5.18;;;;;;;;;;5117288;28;20207;-59
2022/07/23 07:51:28;;;;;;;7.78;4.80;;;;;;;;;;5117439;28;20580;-59
2022/07/23 07:53:57;;;;;;;6.10;4.88;;;;;;;;;;5117371;28;20238;-62
2022/07/23 07:56:25;;;;;;;11.23;5.53;;;;;;;;;;5093962;28;20228;-62
2022/07/23 07:58:53;;;;;;;6.32;5.28;;;;;;;;;;5098391;28;20233;-61
2022/07/23 08:01:26;;;;;;;9.02;5.30;;;;;;;;;;5098934;28;20236;-62
2022/07/23 08:03:55;;;;;;;9.10;5.20;;;;;;;;;;5098498;28;20561;-65
2022/07/23 08:06:23;;;;;;;5.65;5.10;;;;;;;;;;5098883;28;20259;-67
2022/07/23 08:08:51;;;;;;;6.68;5.40;;;;;;;;;;5098879;28;20211;-65
2022/07/23 08:11:19;;;;;;;8.45;5.05;;;;;;;;;;5098854;28;20239;-66
2022/07/23 08:13:48;;;;;;;7.03;4.80;;;;;;;;;;5098143;28;20685;-66
2022/07/23 08:16:16;;;;;;;7.00;6.33;;;;;;;;;;5098403;28;20637;-66
2022/07/23 08:18:45;;;;;;;6.00;5.47;;;;;;;;;;5098207;28;20262;-66
2022/07/23 08:21:13;;;;;;;7.37;5.23;;;;;;;;;;5098764;28;20238;-66
2022/07/23 08:23:41;;;;;;;7.87;5.23;;;;;;;;;;5099712;28;20694;-66
2022/07/23 08:26:09;;;;;;;6.00;5.40;;;;;;;;;;5098382;28;20202;-65
2022/07/23 08:28:37;;;;;;;6.87;5.50;;;;;;;;;;5098179;28;20211;-65
2022/07/23 08:31:06;;;;;;;5.93;5.33;;;;;;;;;;5099084;28;20204;-65
2022/07/23 08:33:34;;;;;;;7.73;5.70;;;;;;;;;;5098101;28;20236;-65
2022/07/23 08:36:04;;;;;;;7.37;5.70;;;;;;;;;;5098095;28;20254;-65
2022/07/23 08:38:33;;;;;;;11.27;5.83;;;;;;;;;;5098224;28;20207;-65
2022/07/23 08:41:01;;;;;;;8.17;5.73;;;;;;;;;;5097859;28;20249;-65
2022/07/23 08:43:30;;;;;;;7.10;5.70;;;;;;;;;;5098088;28;20240;-65
2022/07/23 08:45:59;;;;;;;5.97;5.13;;;;;;;;;;5098308;28;20226;-66
2022/07/23 08:48:30;;;;;;;8.67;6.10;;;;;;;;;;5097935;28;20210;-65
2022/07/23 08:50:59;;;;;;;7.87;6.53;;;;;;;;;;5098018;28;20632;-65
2022/07/23 08:53:30;;;;;;;8.00;5.83;;;;;;;;;;5097797;28;20239;-65
2022/07/23 08:55:59;;;;;;;7.77;6.00;;;;;;;;;;5097871;28;20274;-62
2022/07/23 08:58:27;;;;;;;7.13;5.70;;;;;;;;;;5097929;28;20205;-63
2022/07/23 09:00:56;;;;;;;8.07;5.90;;;;;;;;;;5096833;28;20202;-62
2022/07/23 09:03:26;;;;;;;7.20;5.77;;;;;;;;;;5093795;28;20746;-62
2022/07/23 09:05:55;;;;;;;7.53;5.37;;;;;;;;;;5089149;28;20241;-61
2022/07/23 09:08:24;;;;;;;6.37;5.23;;;;;;;;;;5083615;28;20240;-61
2022/07/23 09:10:54;;;;;;;9.23;5.83;;;;;;;;;;5091201;28;20239;-61
2022/07/23 09:13:33;;;;;;;7.27;5.60;;;;;;;;;;5090313;28;20217;-61
2022/07/23 09:16:03;;;;;;;6.30;5.53;;;;;;;;;;5098139;28;20275;-62
2022/07/23 09:18:43;;;;;;;7.00;6.30;;;;;;;;;;5095903;28;20197;-62
2022/07/23 09:21:13;;;;;;;8.03;6.07;;;;;;;;;;5098670;28;20196;-60
2022/07/23 09:23:42;;;;;;;7.47;5.60;;;;;;;;;;5099041;28;20602;-62
2022/07/23 09:26:34;;;;;;;9.57;6.87;;;;;;;;;;5093729;28;20200;-62
2022/07/23 09:29:04;;;;;;;6.47;5.73;;;;;;;;;;5080955;28;20260;-62
2022/07/23 09:31:34;;;;;;;7.23;6.07;;;;;;;;;;5092272;28;20242;-62
2022/07/23 09:34:09;;;;;;;6.77;6.10;;;;;;;;;;5095638;28;20580;-62
2022/07/23 09:36:37;;;;;;;6.23;5.70;;;;;;;;;;5091710;28;20644;-62
2022/07/23 09:39:05;;;;;;;6.33;5.73;;;;;;;;;;5087039;28;20216;-62
2022/07/23 09:41:35;;;;;;;9.33;5.30;;;;;;;;;;5094372;28;20239;-64
2022/07/23 09:44:09;;;;;;;7.20;5.87;;;;;;;;;;5100455;28;20265;-63
2022/07/23 09:46:39;;;;;;;6.73;5.80;;;;;;;;;;5099721;28;20235;-62
2022/07/23 09:49:17;;;;;;;6.23;5.70;;;;;;;;;;5096756;28;20203;-63
2022/07/23 09:51:51;;;;;;;6.30;5.73;;;;;;;;;;5091301;28;20693;-61
2022/07/23 09:54:24;;;;;;;8.33;6.33;;;;;;;;;;5089473;28;20219;-61
2022/07/23 09:56:52;;;;;;;7.87;5.83;;;;;;;;;;5089931;28;20238;-62
2022/07/23 09:59:24;;;;;;;7.30;5.73;;;;;;;;;;5091253;28;20239;-62
2022/07/23 10:01:53;;;;;;;6.93;6.23;;;;;;;;;;5094049;28;20205;-62
2022/07/23 10:04:22;;;;;;;6.50;5.93;;;;;;;;;;5093834;28;20218;-62
2022/07/23 10:06:52;;;;;;;7.37;5.73;;;;;;;;;;5094150;28;20231;-61
2022/07/23 10:09:23;;;;;;;8.87;6.13;;;;;;;;;;5094166;28;20248;-62
2022/07/23 10:11:51;;;;;;;13.67;10.10;;;;;;;;;;5093635;28;20241;-61
2022/07/23 10:14:19;;;;;;;8.80;6.13;;;;;;;;;;5100507;28;20229;-62
2022/07/23 10:16:49;;;;;;;6.43;5.83;;;;;;;;;;5091021;28;20279;-62
2022/07/23 10:19:18;;;;;;;6.20;5.60;;;;;;;;;;5100367;28;20292;-61
2022/07/23 10:21:46;;;;;;;7.60;6.00;;;;;;;;;;5100341;28;20231;-61
2022/07/23 10:24:19;;;;;;;6.07;5.53;;;;;;;;;;5101102;28;20274;-62
2022/07/23 10:26:54;;;;;;;6.90;5.63;;;;;;;;;;5090666;28;20253;-61
2022/07/23 10:29:29;;;;;;;6.70;5.30;;;;;;;;;;5096344;28;20208;-61
2022/07/23 10:32:01;;;;;;;7.70;6.10;;;;;;;;;;5097032;28;20732;-61
2022/07/23 10:34:36;;;;;;;10.03;6.30;;;;;;;;;;5099992;28;20244;-61
2022/07/23 10:37:08;;;;;;;6.63;5.97;;;;;;;;;;5096353;28;20257;-60
2022/07/23 10:39:37;;;;;;;8.50;6.10;;;;;;;;;;5090128;28;20708;-61
2022/07/23 10:42:11;;;;;;;7.43;5.60;;;;;;;;;;5095683;28;20279;-60
2022/07/23 10:44:40;;;;;;;7.57;5.13;;;;;;;;;;5095553;28;20717;-61
2022/07/23 10:50:15;;;;;;;7.27;5.50;;;;;;;;;;5093313;28;20256;-61
2022/07/23 10:53:03;;;;;;;6.47;5.50;;;;;;;;;;5093697;28;20238;-61
2022/07/23 10:55:49;;;;;;;7.10;5.78;;;;;;;;;;5094967;28;20266;-61
2022/07/23 10:58:21;;;;;;;7.40;5.28;;;;;;;;;;5089143;28;20259;-61
2022/07/23 11:00:50;;;;;;;6.35;5.75;;;;;;;;;;5088964;28;20635;-60
2022/07/23 11:03:37;;;;;;;6.97;5.70;;;;;;;;;;5088264;28;20225;-61
2022/07/23 11:06:06;;;;;;;9.45;5.50;;;;;;;;;;5092435;28;20236;-61
2022/07/23 11:08:34;;;;;;;5.93;5.43;;;;;;;;;;5098971;28;20234;-60
2022/07/23 11:11:10;;;;;;;10.57;6.40;;;;;;;;;;5097400;28;20243;-61
2022/07/23 11:13:48;;;;;;;14.93;5.97;;;;;;;;;;5086451;28;20260;-61
2022/07/23 11:16:17;;;;;;;6.50;5.07;;;;;;;;;;5089673;28;20602;-61
2022/07/23 11:19:05;;;;;;;7.97;7.18;;;;;;;;;;5095183;28;20242;-62
2022/07/23 11:21:43;;;;;;;7.03;6.18;;;;;;;;;;5094390;28;20237;-64
2022/07/23 11:24:11;;;;;;;6.35;5.70;;;;;;;;;;5097828;28;20247;-64
2022/07/23 11:26:50;;;;;;;7.85;6.32;;;;;;;;;;5091765;28;20709;-64
2022/07/23 11:29:37;;;;;;;6.65;5.90;;;;;;;;;;5092809;28;20233;-64
2022/07/23 11:32:19;;;;;;;6.70;5.75;;;;;;;;;;5092193;28;20209;-64
2022/07/23 11:34:51;;;;;;;8.13;5.30;;;;;;;;;;5095662;28;20629;-64
2022/07/23 11:37:34;;;;;;;8.77;6.20;;;;;;;;;;5097694;28;20259;-64
2022/07/23 11:40:03;;;;;;;6.15;5.38;;;;;;;;;;5092738;28;20246;-64
2022/07/23 11:42:31;;;;;;;8.65;6.13;;;;;;;;;;5092180;28;20688;-64
2022/07/23 11:44:59;;;;;;;6.63;5.73;;;;;;;;;;5098609;28;20252;-64
2022/07/23 11:47:28;;;;;;;6.15;5.50;;;;;;;;;;5095165;28;20285;-64
2022/07/23 11:49:58;;;;;;;6.68;6.07;;;;;;;;;;5094235;28;20233;-64
2022/07/23 11:52:27;;;;;;;6.20;5.40;;;;;;;;;;5096049;28;20655;-64
2022/07/23 11:54:56;;;;;;;6.10;5.47;;;;;;;;;;5095780;28;20224;-63
2022/07/23 11:57:25;;;;;;;10.40;6.38;;;;;;;;;;5095128;28;20273;-64
2022/07/23 11:59:58;;;;;;;6.38;5.75;;;;;;;;;;5097801;28;20251;-63
2022/07/23 12:02:27;;;;;;;7.07;6.38;;;;;;;;;;5095172;28;20211;-64
2022/07/23 12:04:55;;;;;;;8.00;5.95;;;;;;;;;;5097921;28;20226;-64
2022/07/23 12:07:25;;;;;;;6.90;6.15;;;;;;;;;;5090087;28;20332;-63
2022/07/23 12:09:54;;;;;;;7.05;5.95;;;;;;;;;;5086820;28;20205;-63
2022/07/23 12:12:22;;;;;;;5.80;4.72;;;;;;;;;;5083845;28;20243;-63
2022/07/23 12:14:51;;;;;;;6.28;5.07;;;;;;;;;;5091575;28;20252;-63
2022/07/23 12:17:19;;;;;;;6.90;5.10;;;;;;;;;;5090150;28;20251;-63
2022/07/23 12:19:48;;;;;;;6.30;5.70;;;;;;;;;;5097665;28;20292;-63
2022/07/23 12:22:16;;;;;;;6.35;5.68;;;;;;;;;;5079060;28;20292;-63
2022/07/23 12:24:55;;;;;;;6.90;5.20;;;;;;;;;;5092249;28;20594;-63
2022/07/23 12:27:24;;;;;;;5.75;5.22;;;;;;;;;;5085967;28;20215;-64
2022/07/23 12:29:52;;;;;;;7.55;4.97;;;;;;;;;;5094793;28;20255;-64
2022/07/23 12:32:21;;;;;;;7.03;5.18;;;;;;;;;;5091275;28;20691;-63
2022/07/23 12:34:49;;;;;;;4.85;4.35;;;;;;;;;;5094398;28;20264;-63
2022/07/23 12:37:28;;;;;;;6.20;5.25;;;;;;;;;;5090358;28;20263;-63
2022/07/23 12:39:57;;;;;;;5.43;4.93;;;;;;;;;;5095006;28;20243;-63
2022/07/23 12:42:25;;;;;;;6.05;4.47;;;;;;;;;;5084498;28;20237;-63
2022/07/23 12:45:14;;;;;;;6.15;5.55;;;;;;;;;;5086876;28;20226;-63
2022/07/23 12:47:55;;;;;;;6.10;5.50;;;;;;;;;;5087136;28;20205;-63
2022/07/23 12:50:33;;;;;;;5.90;5.20;;;;;;;;;;5085088;28;20216;-63
2022/07/23 12:53:05;;;;;;;7.18;5.38;;;;;;;;;;5100930;28;20236;-63
2022/07/23 12:55:42;;;;;;;5.82;4.90;;;;;;;;;;5094061;28;20212;-63
2022/07/23 12:58:40;;;;;;;5.82;4.75;;;;;;;;;;5095504;28;20208;-61
2022/07/23 13:01:10;;;;;;;5.30;4.80;;;;;;;;;;5084213;28;20258;-64
2022/07/23 13:03:40;;;;;;;6.38;5.07;;;;;;;;;;5096142;28;20231;-63
2022/07/23 13:06:09;;;;;;;6.15;5.00;;;;;;;;;;5093882;28;20205;-63
2022/07/23 13:08:38;;;;;;;5.63;5.13;;;;;;;;;;5096792;28;20250;-63
2022/07/23 13:11:07;;;;;;;7.05;5.10;;;;;;;;;;5101746;28;20201;-63
2022/07/23 13:13:36;;;;;;;6.50;5.05;;;;;;;;;;5096698;28;20594;-63
2022/07/23 13:16:04;;;;;;;5.20;4.68;;;;;;;;;;5096877;28;20289;-63
2022/07/23 13:18:38;;;;;;;6.38;5.10;;;;;;;;;;5092993;28;20218;-63
2022/07/23 13:21:06;;;;;;;5.38;4.80;;;;;;;;;;5094255;28;20236;-63
2022/07/23 13:23:35;;;;;;;7.32;6.20;;;;;;;;;;5096110;28;20243;-63
2022/07/23 13:26:04;;;;;;;6.57;5.63;;;;;;;;;;5097190;28;20270;-63
2022/07/23 13:28:33;;;;;;;7.57;4.88;;;;;;;;;;5093529;28;20751;-63
2022/07/23 13:31:02;;;;;;;6.53;4.60;;;;;;;;;;5097054;28;20206;-63
2022/07/23 13:33:30;;;;;;;6.97;5.53;;;;;;;;;;5097149;28;20229;-62
2022/07/23 13:35:58;;;;;;;6.70;4.88;;;;;;;;;;5089782;28;20235;-63
2022/07/23 13:38:26;;;;;;;6.15;5.05;;;;;;;;;;5092504;28;20227;-63
2022/07/23 13:40:54;;;;;;;4.97;4.57;;;;;;;;;;5092788;28;20244;-63
2022/07/23 13:43:23;;;;;;;5.45;4.55;;;;;;;;;;5097424;28;20225;-63
2022/07/23 13:45:53;;;;;;;5.00;4.47;;;;;;;;;;5093393;28;20267;-63
2022/07/23 13:48:21;;;;;;;9.25;4.97;;;;;;;;;;5096920;28;20197;-63
2022/07/23 13:50:50;;;;;;;5.22;4.75;;;;;;;;;;5095074;28;20276;-62
2022/07/23 13:53:19;;;;;;;4.80;4.40;;;;;;;;;;5099136;28;20668;-63
2022/07/23 13:55:48;;;;;;;4.85;4.45;;;;;;;;;;5096168;28;20232;-63
2022/07/23 13:58:16;;;;;;;6.78;4.75;;;;;;;;;;5094594;28;20224;-63
2022/07/23 14:00:46;;;;;;;5.35;4.72;;;;;;;;;;5105782;28;20235;-63
2022/07/23 14:03:23;;;;;;;7.18;4.93;;;;;;;;;;5103859;28;20223;-63
2022/07/23 14:05:51;;;;;;;7.90;5.10;;;;;;;;;;5091405;28;20210;-63
2022/07/23 14:08:23;;;;;;;5.10;4.60;;;;;;;;;;5096917;28;20257;-63
2022/07/23 14:10:51;;;;;;;5.32;4.85;;;;;;;;;;5093258;28;20241;-63
2022/07/23 14:13:19;;;;;;;4.90;4.40;;;;;;;;;;5095224;28;20233;-63
2022/07/23 14:15:49;;;;;;;4.97;4.35;;;;;;;;;;5100855;28;20243;-63
2022/07/23 14:18:18;;;;;;;5.03;4.30;;;;;;;;;;5109620;28;20232;-62
2022/07/23 14:20:47;;;;;;;4.75;4.28;;;;;;;;;;5096508;28;20233;-63
2022/07/23 14:23:15;;;;;;;5.50;4.60;;;;;;;;;;5096573;28;20244;-63
2022/07/23 14:25:43;;;;;;;4.57;4.18;;;;;;;;;;5099409;28;20240;-63
2022/07/23 14:28:14;;;;;;;6.20;4.55;;;;;;;;;;5095833;28;20273;-63
2022/07/23 14:30:42;;;;;;;7.93;5.20;;;;;;;;;;5094153;28;20610;-63
2022/07/23 14:33:11;;;;;;;6.40;5.05;;;;;;;;;;5098551;28;20682;-63
2022/07/23 14:35:39;;;;;;;5.63;4.53;;;;;;;;;;5100946;28;20241;-63
2022/07/23 14:38:09;;;;;;;4.63;4.18;;;;;;;;;;5099888;28;20232;-63
2022/07/23 14:40:40;;;;;;;5.00;4.60;;;;;;;;;;5096812;28;20215;-63
2022/07/23 14:43:08;;;;;;;5.05;4.65;;;;;;;;;;5094651;28;20293;-63
2022/07/23 14:45:38;;;;;;;5.63;5.03;;;;;;;;;;5097182;28;20291;-63
2022/07/23 14:48:07;;;;;;;8.48;4.93;;;;;;;;;;5100009;28;20243;-63
2022/07/23 14:50:35;;;;;;;4.82;4.40;;;;;;;;;;5099377;28;20204;-62
2022/07/23 14:53:03;;;;;;;6.97;4.40;;;;;;;;;;5099520;28;20211;-63
2022/07/23 14:55:33;;;;;;;4.80;4.40;;;;;;;;;;5086759;28;20265;-63
2022/07/23 14:58:01;;;;;;;4.43;4.13;;;;;;;;;;5085180;28;20265;-62